createdAt,value
2023-03-23T16:00:24.749Z,5.78
2023-03-23T16:03:18.805Z,4.50
2023-03-23T16:06:06.939Z,7.45
2023-03-23T16:08:55.976Z,6.63
2023-03-23T16:11:43.992Z,5.63
2023-03-23T16:14:31.595Z,7.05
2023-03-23T16:17:21.973Z,6.85
2023-03-23T16:20:15.741Z,8.38
2023-03-23T16:23:03.528Z,6.55
2023-03-23T16:25:51.270Z,8.15
2023-03-23T16:28:39.498Z,8.15
2023-03-23T16:31:27.227Z,8.40
2023-03-23T16:34:15.714Z,8.07
2023-03-23T16:37:03.421Z,8.35
2023-03-23T16:39:51.163Z,7.82
2023-03-23T16:42:38.740Z,9.15
2023-03-23T16:45:27.541Z,12.57
2023-03-23T16:48:16.810Z,10.70
2023-03-23T16:51:04.827Z,10.27
2023-03-23T16:53:52.458Z,12.50
2023-03-23T16:56:40.468Z,12.60
2023-03-23T16:59:29.163Z,11.98
2023-03-23T17:02:17.137Z,11.60
2023-03-23T17:05:04.961Z,12.43
2023-03-23T17:07:53.181Z,15.18
2023-03-23T17:10:41.955Z,13.50
2023-03-23T17:13:32.091Z,14.35
2023-03-23T17:16:19.739Z,18.10
2023-03-23T17:19:07.847Z,19.90
2023-03-23T17:21:55.587Z,14.48
2023-03-23T17:24:44.148Z,13.65
2023-03-23T17:27:32.315Z,10.77
2023-03-23T17:30:20.215Z,11.05
2023-03-23T17:33:12.631Z,10.82
2023-03-23T17:36:03.161Z,11.32
2023-03-23T17:39:02.390Z,11.27
2023-03-23T17:41:50.160Z,13.65
2023-03-23T17:44:38.217Z,13.57
2023-03-23T17:47:26.327Z,16.42
2023-03-23T17:50:14.387Z,14.57
2023-03-23T17:53:02.338Z,16.35
2023-03-23T17:55:53.564Z,31.30
2023-03-23T17:58:41.285Z,54.50
2023-03-23T18:01:29.009Z,26.80
2023-03-23T18:04:17.461Z,20.13
2023-03-23T18:07:07.542Z,25.38
2023-03-23T18:10:01.613Z,30.83
2023-03-23T18:12:51.667Z,22.77
2023-03-23T18:15:45.671Z,34.53
2023-03-23T18:18:37.461Z,18.23
2023-03-23T18:21:26.288Z,13.65
2023-03-23T18:24:15.546Z,22.73
2023-03-23T18:27:03.900Z,27.65
2023-03-23T18:29:53.981Z,28.45
2023-03-23T18:32:42.538Z,25.42
2023-03-23T18:35:39.630Z,30.38
2023-03-23T18:38:28.979Z,29.02
2023-03-23T18:41:18.411Z,29.92
2023-03-23T18:44:06.541Z,27.65
2023-03-23T18:46:54.381Z,24.75
2023-03-23T18:49:42.043Z,27.33
2023-03-23T18:52:33.121Z,35.85
2023-03-23T18:55:22.098Z,41.65
2023-03-23T18:58:10.639Z,38.03
2023-03-23T19:00:58.545Z,50.40
2023-03-23T19:03:46.893Z,68.30
2023-03-23T19:06:37.731Z,65.67
2023-03-23T19:09:25.761Z,56.33
2023-03-23T19:12:16.102Z,51.97
2023-03-23T19:15:07.272Z,63.28
2023-03-23T19:17:56.688Z,56.87
2023-03-23T19:21:12.710Z,51.25
2023-03-23T19:23:55.289Z,47.45
2023-03-23T19:26:45.203Z,31.98
2023-03-23T19:29:33.224Z,39.13
2023-03-23T19:32:21.208Z,32.85
2023-03-23T19:35:10.179Z,27.13
2023-03-23T19:37:58.025Z,27.80
2023-03-23T19:40:58.485Z,43.15
2023-03-23T19:43:56.458Z,32.65
2023-03-23T19:46:49.271Z,36.42
2023-03-23T19:49:37.300Z,43.70
2023-03-23T19:52:25.097Z,39.70
2023-03-23T19:55:12.985Z,32.15
2023-03-23T19:58:00.694Z,49.13
2023-03-23T20:00:48.894Z,55.08
2023-03-23T20:03:37.123Z,46.22
2023-03-23T20:06:24.814Z,38.30
2023-03-23T20:09:12.425Z,35.88
2023-03-23T20:12:00.193Z,28.15
2023-03-23T20:14:47.879Z,25.67
2023-03-23T20:17:35.660Z,22.27
2023-03-23T20:20:23.808Z,23.63
2023-03-23T20:23:11.451Z,23.42
2023-03-23T20:26:06.886Z,20.00
2023-03-23T20:28:55.188Z,17.10
2023-03-23T20:31:43.479Z,20.10
2023-03-23T20:34:31.747Z,18.40
2023-03-23T20:37:20.799Z,16.33
2023-03-23T20:40:15.160Z,16.65
2023-03-23T20:43:03.999Z,17.15
2023-03-23T20:45:52.651Z,16.48
2023-03-23T20:48:41.457Z,16.17
2023-03-23T20:51:29.180Z,20.10
2023-03-23T20:54:19.165Z,20.02
2023-03-23T20:57:08.432Z,19.80
2023-03-23T20:59:56.579Z,20.00
2023-03-23T21:02:44.651Z,20.05
2023-03-23T21:05:32.343Z,19.65
2023-03-23T21:08:20.194Z,22.38
2023-03-23T21:11:10.085Z,23.98
2023-03-23T21:13:57.861Z,26.23
2023-03-23T21:16:45.730Z,25.65
2023-03-23T21:19:34.456Z,26.85
2023-03-23T21:22:22.640Z,23.75
2023-03-23T21:25:10.374Z,24.80
2023-03-23T21:27:58.091Z,23.35
2023-03-23T21:30:48.378Z,23.80
2023-03-23T21:33:36.213Z,26.40
2023-03-23T21:36:24.979Z,41.13
2023-03-23T21:39:12.862Z,42.17
2023-03-23T21:42:02.060Z,39.50
2023-03-23T21:44:49.775Z,42.15
2023-03-23T21:47:38.344Z,35.20
2023-03-23T21:50:26.047Z,36.08
2023-03-23T21:53:18.524Z,31.83
2023-03-23T21:56:07.647Z,31.58
2023-03-23T21:58:56.815Z,31.65
2023-03-23T22:01:44.607Z,32.10
2023-03-23T22:04:32.350Z,28.60
2023-03-23T22:07:23.358Z,25.98
2023-03-23T22:10:11.067Z,28.42
2023-03-23T22:12:58.831Z,26.25
2023-03-23T22:15:52.102Z,27.40
2023-03-23T22:18:43.556Z,25.55
2023-03-23T22:21:31.464Z,24.20
2023-03-23T22:24:19.141Z,25.00
2023-03-23T22:27:07.341Z,22.15
2023-03-23T22:29:55.099Z,21.77
2023-03-23T22:32:43.128Z,23.08
2023-03-23T22:35:30.965Z,20.90
2023-03-23T22:38:18.786Z,21.20
2023-03-23T22:41:08.005Z,20.88
2023-03-23T22:43:55.925Z,15.93
2023-03-23T22:46:43.635Z,15.80
2023-03-23T22:49:32.958Z,14.45
2023-03-23T22:52:20.800Z,16.00
2023-03-23T22:55:09.499Z,12.13
2023-03-23T22:57:57.198Z,13.20
2023-03-23T23:00:48.319Z,11.77
2023-03-23T23:03:37.111Z,11.52
2023-03-23T23:06:25.869Z,9.68
2023-03-23T23:09:13.689Z,8.70
2023-03-23T23:12:01.384Z,10.07
2023-03-23T23:14:49.182Z,10.20
2023-03-23T23:17:39.148Z,8.55
2023-03-23T23:20:27.051Z,9.25
2023-03-23T23:23:14.709Z,10.50
2023-03-23T23:26:02.985Z,8.85
2023-03-23T23:28:51.147Z,9.52
2023-03-23T23:31:38.958Z,8.63
2023-03-23T23:34:26.736Z,10.35
2023-03-23T23:37:14.482Z,9.88
2023-03-23T23:40:02.968Z,9.07
2023-03-23T23:42:52.379Z,9.88
2023-03-23T23:45:40.146Z,10.43
2023-03-23T23:48:28.558Z,9.20
2023-03-23T23:51:17.724Z,10.73
2023-03-23T23:54:05.486Z,9.95
2023-03-23T23:56:53.195Z,11.38
2023-03-23T23:59:41.513Z,9.85
